< < Back
Terminal Aerodrome Forecast


Current Version              Previous Versions:   1  2  3  4  5  6  7  8  9  

Terminal Aerodrome Forecast

253
FTUS44 KBMX 040520
TAFANB
TAF
KANB 040520Z 0406/0506 26005KT P6SM BKN070
     FM041500 28010KT P6SM SKC
     FM041800 27015G25KT P6SM SCT050
     FM050100 28010KT P6SM SHRA BKN050=

Latest METAR

540
SAUS70 KWBC 050100 RRI
MTRANB
METAR KANB 050053Z AUTO 35013G23KT 8SM -RA OVC060 16/12 A2976 RMK AO2 PK
WND 36028/0031 WSHFT 0025 RAB26 SLP077 P0002 T01560122


USA.gov is the U.S. government's official web portal to all federal, state and local government web resources and services.